createdAt,value
2019-05-02T00:01:57.155Z,100718.66
2019-05-02T00:04:26.783Z,100717.31
2019-05-02T00:07:09.719Z,100718.06
2019-05-02T00:09:47.437Z,100719.36
2019-05-02T00:12:16.110Z,100716.88
2019-05-02T00:14:45.696Z,100717.70
2019-05-02T00:17:20.353Z,100716.88
2019-05-02T00:19:49.850Z,100720.78
2019-05-02T00:22:20.051Z,100717.31
2019-05-02T00:24:49.836Z,100714.23
2019-05-02T00:27:19.326Z,100712.03
2019-05-02T00:29:48.906Z,100712.10
2019-05-02T00:32:22.245Z,100713.13
2019-05-02T00:34:49.535Z,100710.05
2019-05-02T00:37:24.384Z,100707.02
2019-05-02T00:39:50.535Z,100710.45
2019-05-02T00:42:22.594Z,100702.95
2019-05-02T00:44:51.380Z,100695.92
2019-05-02T00:47:31.009Z,100699.31
2019-05-02T00:50:00.427Z,100694.06
2019-05-02T00:52:32.878Z,100691.81
2019-05-02T00:55:01.093Z,100683.34
2019-05-02T00:57:33.537Z,100681.17
2019-05-02T01:00:03.675Z,100680.78
2019-05-02T01:02:35.852Z,100674.27
2019-05-02T01:05:06.752Z,100674.70
2019-05-02T01:07:36.192Z,100676.09
2019-05-02T01:10:07.179Z,100672.22
2019-05-02T01:12:40.014Z,100668.49
2019-05-02T01:15:08.681Z,100674.95
2019-05-02T01:17:39.243Z,100679.42
2019-05-02T01:20:09.233Z,100675.98
2019-05-02T01:22:38.723Z,100672.13
2019-05-02T01:25:14.940Z,100675.24
2019-05-02T01:27:44.692Z,100672.20
2019-05-02T01:30:25.487Z,100671.30
2019-05-02T01:33:06.448Z,100668.27
2019-05-02T01:35:50.992Z,100676.89
2019-05-02T01:38:26.561Z,100672.52
2019-05-02T01:40:55.918Z,100662.98
2019-05-02T01:43:27.707Z,100664.28
2019-05-02T01:45:57.281Z,100665.53
2019-05-02T01:48:26.858Z,100661.16
2019-05-02T01:50:56.304Z,100655.44
2019-05-02T01:53:29.238Z,100654.56
2019-05-02T01:55:59.186Z,100651.53
2019-05-02T01:58:28.218Z,100648.14
2019-05-02T02:00:57.651Z,100653.70
2019-05-02T02:03:27.285Z,100637.42
2019-05-02T02:05:56.822Z,100639.16
2019-05-02T02:08:27.224Z,100636.47
2019-05-02T02:10:58.244Z,100629.96
2019-05-02T02:13:31.374Z,100637.21
2019-05-02T02:16:00.224Z,100635.12
2019-05-02T02:18:31.995Z,100633.39
2019-05-02T02:21:09.351Z,100625.50
2019-05-02T02:23:49.670Z,100629.35
2019-05-02T02:26:19.043Z,100631.09
2019-05-02T02:28:48.554Z,100619.81
2019-05-02T02:31:19.764Z,100623.76
2019-05-02T02:33:51.485Z,100622.41
2019-05-02T02:36:30.214Z,100619.42
2019-05-02T02:38:57.585Z,100621.67
2019-05-02T02:41:27.090Z,100611.65
2019-05-02T02:44:02.976Z,100609.87
2019-05-02T02:46:38.099Z,100612.99
2019-05-02T02:49:05.477Z,100610.22
2019-05-02T02:51:34.997Z,100608.09
2019-05-02T02:54:05.835Z,100606.05
2019-05-02T02:56:40.433Z,100603.93
2019-05-02T02:59:06.837Z,100602.72
2019-05-02T03:01:36.286Z,100607.92
2019-05-02T03:04:09.491Z,100600.45
2019-05-02T03:06:38.352Z,100600.89
2019-05-02T03:09:08.689Z,100601.72
2019-05-02T03:11:39.911Z,100596.60
2019-05-02T03:14:11.064Z,100603.53
2019-05-02T03:16:47.236Z,100591.39
2019-05-02T03:19:14.774Z,100588.88
2019-05-02T03:22:01.030Z,100581.84
2019-05-02T03:24:27.311Z,100587.92
2019-05-02T03:26:58.361Z,100584.89
2019-05-02T03:29:39.706Z,100584.66
2019-05-02T03:32:14.274Z,100577.08
2019-05-02T03:34:45.298Z,100577.60
2019-05-02T03:37:09.597Z,100575.82
2019-05-02T03:39:34.768Z,100574.12
2019-05-02T03:42:05.096Z,100561.41
2019-05-02T03:44:35.719Z,100568.80
2019-05-02T03:47:05.364Z,100566.19
2019-05-02T03:49:41.045Z,100556.59
2019-05-02T03:52:06.259Z,100561.47
2019-05-02T03:54:49.084Z,100558.90
2019-05-02T03:57:07.567Z,100555.78
2019-05-02T03:59:39.722Z,100561.47
2019-05-02T04:02:14.148Z,100550.17
2019-05-02T04:04:40.364Z,100548.05
2019-05-02T04:07:10.188Z,100541.94
2019-05-02T04:09:42.353Z,100547.53
2019-05-02T04:12:18.938Z,100547.83
2019-05-02T04:14:43.369Z,100543.50
2019-05-02T04:17:13.040Z,100541.67
2019-05-02T04:19:43.612Z,100548.70
2019-05-02T04:22:14.515Z,100547.30
2019-05-02T04:24:47.809Z,100544.66
2019-05-02T04:27:15.789Z,100547.27
2019-05-02T04:29:45.207Z,100542.34
2019-05-02T04:32:14.910Z,100536.76
2019-05-02T04:34:48.960Z,100535.55
2019-05-02T04:37:15.535Z,100536.80
2019-05-02T04:39:44.981Z,100533.67
2019-05-02T04:42:19.470Z,100537.00
2019-05-02T04:45:08.785Z,100537.00
2019-05-02T04:47:21.335Z,100530.88
2019-05-02T04:49:52.071Z,100526.97
2019-05-02T04:52:21.831Z,100528.33
2019-05-02T04:54:51.284Z,100530.50
2019-05-02T04:57:26.289Z,100535.22
2019-05-02T05:00:04.982Z,100533.83
2019-05-02T05:02:30.831Z,100534.21
2019-05-02T05:04:54.141Z,100534.98
2019-05-02T05:07:24.251Z,100530.56
2019-05-02T05:10:02.660Z,100537.65
2019-05-02T05:12:24.808Z,100533.26
2019-05-02T05:14:54.232Z,100530.31
2019-05-02T05:17:25.015Z,100524.77
2019-05-02T05:19:54.790Z,100533.34
2019-05-02T05:22:24.236Z,100524.05
2019-05-02T05:25:12.282Z,100528.73
2019-05-02T05:27:41.540Z,100529.98
2019-05-02T05:30:15.425Z,100526.27
2019-05-02T05:32:42.239Z,100531.18
2019-05-02T05:35:14.727Z,100525.88
2019-05-02T05:37:51.419Z,100532.29
2019-05-02T05:40:17.661Z,100533.59
2019-05-02T05:42:48.079Z,100532.29
2019-05-02T05:45:17.757Z,100528.87
2019-05-02T05:47:47.888Z,100528.48
2019-05-02T05:50:17.774Z,100530.30
2019-05-02T05:52:47.355Z,100538.80
2019-05-02T05:55:20.348Z,100540.06
2019-05-02T05:57:50.130Z,100539.92
2019-05-02T06:00:22.985Z,100530.50
2019-05-02T06:02:56.089Z,100532.77
2019-05-02T06:05:21.519Z,100533.41
2019-05-02T06:07:50.933Z,100527.63
2019-05-02T06:10:20.389Z,100530.94
2019-05-02T06:12:49.865Z,100528.63
2019-05-02T06:15:19.447Z,100529.98
2019-05-02T06:17:48.939Z,100527.22
2019-05-02T06:20:18.521Z,100527.94
2019-05-02T06:22:47.941Z,100526.35
2019-05-02T06:25:17.534Z,100522.96
2019-05-02T06:27:46.957Z,100525.28
2019-05-02T06:30:17.484Z,100519.48
2019-05-02T06:32:50.122Z,100519.82
2019-05-02T06:35:21.250Z,100521.23
2019-05-02T06:37:50.112Z,100524.12
2019-05-02T06:40:20.442Z,100523.97
2019-05-02T06:42:49.955Z,100518.32
2019-05-02T06:45:19.619Z,100514.36
2019-05-02T06:47:49.134Z,100517.93
2019-05-02T06:50:18.687Z,100515.56
2019-05-02T06:52:48.226Z,100512.26
2019-05-02T06:55:17.808Z,100507.14
2019-05-02T06:57:47.469Z,100505.09
2019-05-02T07:00:17.526Z,100501.63
2019-05-02T07:02:47.082Z,100496.58
2019-05-02T07:05:16.651Z,100499.19
2019-05-02T07:07:46.199Z,100502.44
2019-05-02T07:10:19.970Z,100498.91
2019-05-02T07:12:51.185Z,100507.60
2019-05-02T07:15:25.755Z,100501.67
2019-05-02T07:17:59.084Z,100501.78
2019-05-02T07:20:28.527Z,100497.33
2019-05-02T07:22:59.582Z,100503.79
2019-05-02T07:25:29.000Z,100498.41
2019-05-02T07:27:58.512Z,100502.11
2019-05-02T07:30:30.116Z,100497.86
2019-05-02T07:33:01.149Z,100497.87
2019-05-02T07:35:30.397Z,100493.48
2019-05-02T07:37:59.836Z,100496.19
2019-05-02T07:40:29.349Z,100501.02
2019-05-02T07:42:58.778Z,100496.45
2019-05-02T07:45:28.299Z,100497.61
2019-05-02T07:47:57.747Z,100498.09
2019-05-02T07:50:27.260Z,100491.72
2019-05-02T07:52:56.750Z,100494.33
2019-05-02T07:55:30.598Z,100495.53
2019-05-02T07:58:02.035Z,100503.12
2019-05-02T08:00:32.079Z,100497.29
2019-05-02T08:03:04.986Z,100501.53
2019-05-02T08:05:33.487Z,100496.97
2019-05-02T08:08:03.011Z,100497.13
2019-05-02T08:10:32.506Z,100487.03
2019-05-02T08:13:02.088Z,100487.44
2019-05-02T08:15:31.675Z,100484.73
2019-05-02T08:18:01.090Z,100493.05
2019-05-02T08:20:30.623Z,100489.39
2019-05-02T08:23:00.159Z,100494.45
2019-05-02T08:25:29.608Z,100482.27
2019-05-02T08:28:15.815Z,100489.16
2019-05-02T08:30:45.365Z,100490.84
2019-05-02T08:33:14.893Z,100491.55
2019-05-02T08:35:44.869Z,100489.74
2019-05-02T08:38:17.798Z,100484.52
2019-05-02T08:40:47.866Z,100486.72
2019-05-02T08:43:16.701Z,100488.00
2019-05-02T08:45:46.124Z,100483.11
2019-05-02T08:48:15.573Z,100489.91
2019-05-02T08:50:45.120Z,100494.02
2019-05-02T08:53:19.728Z,100492.44
2019-05-02T08:55:46.716Z,100497.44
2019-05-02T08:58:16.307Z,100487.13
2019-05-02T09:00:47.388Z,100491.59
2019-05-02T09:03:17.044Z,100491.40
2019-05-02T09:05:47.468Z,100492.41
2019-05-02T09:08:17.178Z,100485.13
2019-05-02T09:10:46.767Z,100496.56
2019-05-02T09:13:23.633Z,100494.63
2019-05-02T09:15:51.308Z,100501.93
2019-05-02T09:18:18.594Z,100492.22
2019-05-02T09:20:52.639Z,100494.70
2019-05-02T09:23:19.162Z,100497.94
2019-05-02T09:25:48.596Z,100502.17
2019-05-02T09:28:22.493Z,100497.43
2019-05-02T09:31:05.085Z,100498.80
2019-05-02T09:33:32.245Z,100498.19
2019-05-02T09:36:02.425Z,100495.39
2019-05-02T09:38:32.849Z,100495.94
2019-05-02T09:41:15.345Z,100493.08
2019-05-02T09:43:38.977Z,100489.00
2019-05-02T09:46:07.316Z,100489.00
2019-05-02T09:48:36.569Z,100487.02
2019-05-02T09:51:12.523Z,100485.06
2019-05-02T09:53:37.270Z,100487.29
2019-05-02T09:56:06.835Z,100483.60
2019-05-02T09:58:36.351Z,100488.33
2019-05-02T10:01:11.859Z,100492.30
2019-05-02T10:03:42.385Z,100492.30
2019-05-02T10:06:13.894Z,100483.89
2019-05-02T10:08:46.276Z,100482.88
2019-05-02T10:11:16.854Z,100477.52
2019-05-02T10:13:45.561Z,100477.52
2019-05-02T10:16:18.010Z,100472.96
2019-05-02T10:18:46.203Z,100472.33
2019-05-02T10:21:17.170Z,100466.14
2019-05-02T10:23:51.826Z,100481.29
2019-05-02T10:26:20.242Z,100473.82
2019-05-02T10:28:50.762Z,100474.61
2019-05-02T10:31:21.854Z,100473.16
2019-05-02T10:33:52.951Z,100475.55
2019-05-02T10:36:23.967Z,100461.55
2019-05-02T10:38:58.852Z,100464.04
2019-05-02T10:41:24.780Z,100456.67
2019-05-02T10:43:57.748Z,100455.95
2019-05-02T10:46:27.783Z,100453.54
2019-05-02T10:49:18.259Z,100452.91
2019-05-02T10:51:49.608Z,100449.64
2019-05-02T10:54:20.606Z,100450.55
2019-05-02T10:56:51.847Z,100447.51
2019-05-02T10:59:22.108Z,100449.48
2019-05-02T11:02:09.968Z,100438.85
2019-05-02T11:04:42.095Z,100439.44
2019-05-02T11:07:12.033Z,100431.70
2019-05-02T11:09:42.033Z,100432.66
2019-05-02T11:12:16.459Z,100420.84
2019-05-02T11:14:46.096Z,100421.65
2019-05-02T11:17:20.165Z,100419.42
2019-05-02T11:20:01.898Z,100423.49
2019-05-02T11:22:32.688Z,100424.95
2019-05-02T11:25:02.180Z,100420.70
2019-05-02T11:27:32.856Z,100413.63
2019-05-02T11:30:02.791Z,100413.34
2019-05-02T11:32:33.026Z,100408.30
2019-05-02T11:35:03.077Z,100396.52
2019-05-02T11:37:32.927Z,100394.58
2019-05-02T11:40:05.778Z,100403.35
2019-05-02T11:42:33.878Z,100388.53
2019-05-02T11:45:04.243Z,100392.73
2019-05-02T11:47:33.713Z,100387.86
2019-05-02T11:50:03.478Z,100388.88
2019-05-02T11:52:37.318Z,100382.87
2019-05-02T11:55:06.064Z,100376.76
2019-05-02T11:57:35.531Z,100373.17
2019-05-02T12:00:09.073Z,100362.56
2019-05-02T12:02:41.768Z,100362.91
2019-05-02T12:05:14.099Z,100355.34
2019-05-02T12:07:43.560Z,100343.52
2019-05-02T12:10:13.222Z,100343.08
2019-05-02T12:12:43.757Z,100334.74
2019-05-02T12:15:13.388Z,100331.21
2019-05-02T12:17:43.109Z,100337.42
2019-05-02T12:20:12.825Z,100338.09
2019-05-02T12:22:42.423Z,100330.63
2019-05-02T12:25:12.893Z,100329.95
2019-05-02T12:27:43.573Z,100330.05
2019-05-02T12:30:13.835Z,100326.84
2019-05-02T12:32:43.370Z,100320.74
2019-05-02T12:35:13.083Z,100327.81
2019-05-02T12:37:42.588Z,100320.95
2019-05-02T12:40:12.598Z,100325.09
2019-05-02T12:42:42.099Z,100316.70
2019-05-02T12:45:12.324Z,100315.88
2019-05-02T12:47:42.811Z,100315.02
2019-05-02T12:50:12.801Z,100312.79
2019-05-02T12:52:42.882Z,100315.79
2019-05-02T12:55:12.920Z,100312.05
2019-05-02T12:57:42.982Z,100310.31
2019-05-02T13:00:13.476Z,100312.85
2019-05-02T13:02:47.391Z,100300.61
2019-05-02T13:05:18.061Z,100304.20
2019-05-02T13:07:50.493Z,100306.31
2019-05-02T13:10:24.271Z,100313.56
2019-05-02T13:12:53.843Z,100303.62
2019-05-02T13:15:23.529Z,100298.11
2019-05-02T13:17:53.364Z,100300.42
2019-05-02T13:20:29.165Z,100295.16
2019-05-02T13:23:13.825Z,100292.85
2019-05-02T13:25:43.445Z,100295.66
2019-05-02T13:28:17.130Z,100294.70
2019-05-02T13:30:46.704Z,100287.59
2019-05-02T13:33:18.184Z,100291.19
2019-05-02T13:35:52.060Z,100291.27
2019-05-02T13:38:22.465Z,100293.81
2019-05-02T13:40:51.997Z,100286.07
2019-05-02T13:43:23.087Z,100285.22
2019-05-02T13:46:02.251Z,100288.63
2019-05-02T13:48:32.307Z,100288.59
2019-05-02T13:51:03.907Z,100285.97
2019-05-02T13:53:34.371Z,100292.30
2019-05-02T13:56:23.852Z,100289.05
2019-05-02T13:58:53.274Z,100284.10
2019-05-02T14:01:23.130Z,100287.03
2019-05-02T14:03:55.473Z,100274.06
2019-05-02T14:06:30.257Z,100282.08
2019-05-02T14:08:59.202Z,100279.95
2019-05-02T14:11:43.492Z,100275.61
2019-05-02T14:14:13.180Z,100273.23
2019-05-02T14:16:42.635Z,100276.09
2019-05-02T14:19:12.682Z,100278.92
2019-05-02T14:21:42.392Z,100274.45
2019-05-02T14:24:11.962Z,100275.16
2019-05-02T14:26:43.429Z,100265.45
2019-05-02T14:29:16.290Z,100271.31
2019-05-02T14:31:44.273Z,100271.31
2019-05-02T14:34:32.715Z,100268.45
2019-05-02T14:37:02.147Z,100270.75
2019-05-02T14:39:32.515Z,100280.01
2019-05-02T14:42:03.724Z,100276.39
2019-05-02T14:45:01.518Z,100259.09
2019-05-02T14:47:04.640Z,100271.95
2019-05-02T14:49:34.169Z,100262.39
2019-05-02T14:52:07.051Z,100274.55
2019-05-02T14:54:38.052Z,100266.03
2019-05-02T14:57:21.498Z,100266.31
2019-05-02T14:59:50.207Z,100249.64
2019-05-02T15:02:22.874Z,100258.45
2019-05-02T15:04:53.294Z,100249.80
2019-05-02T15:07:26.567Z,100250.56
2019-05-02T15:09:57.229Z,100253.72
2019-05-02T15:12:25.105Z,100252.11
2019-05-02T15:14:58.646Z,100251.78
2019-05-02T15:17:27.993Z,100244.98
2019-05-02T15:19:57.147Z,100247.85
2019-05-02T15:22:35.843Z,100249.61
2019-05-02T15:25:00.050Z,100247.37
2019-05-02T15:27:40.197Z,100243.14
2019-05-02T15:30:06.553Z,100241.20
2019-05-02T15:32:37.281Z,100229.03
2019-05-02T15:35:12.916Z,100231.90
2019-05-02T15:37:42.686Z,100240.84
2019-05-02T15:42:52.214Z,100225.88
2019-05-02T15:45:23.761Z,100224.97
2019-05-02T15:47:53.064Z,100228.35
2019-05-02T15:50:25.395Z,100216.56
2019-05-02T15:52:57.309Z,100222.78
2019-05-02T15:55:26.808Z,100220.94
2019-05-02T15:57:56.331Z,100222.88
2019-05-02T16:00:27.868Z,100223.01
2019-05-02T16:03:02.901Z,100219.33
2019-05-02T16:05:31.957Z,100210.30
2019-05-02T16:08:06.310Z,100211.62
2019-05-02T16:10:38.474Z,100224.19
2019-05-02T16:13:08.859Z,100211.24
2019-05-02T16:15:40.540Z,100215.02
2019-05-02T16:18:12.623Z,100212.02
2019-05-02T16:20:47.274Z,100214.64
2019-05-02T16:23:19.501Z,100215.02
2019-05-02T16:25:46.659Z,100209.41
2019-05-02T16:28:16.381Z,100214.64
2019-05-02T16:30:47.686Z,100213.55
2019-05-02T16:33:20.737Z,100204.82
2019-05-02T16:35:53.494Z,100198.48
2019-05-02T16:38:26.735Z,100196.80
2019-05-02T16:40:55.928Z,100201.89
2019-05-02T16:43:27.062Z,100200.98
2019-05-02T16:45:56.594Z,100196.20
2019-05-02T16:48:32.358Z,100201.30
2019-05-02T16:50:58.801Z,100206.33
2019-05-02T16:53:30.996Z,100201.70
2019-05-02T16:56:05.512Z,100197.08
2019-05-02T16:58:38.103Z,100198.39
2019-05-02T17:01:07.939Z,100201.22
2019-05-02T17:03:42.374Z,100195.84
2019-05-02T17:06:12.373Z,100192.82
2019-05-02T17:09:02.849Z,100192.66
2019-05-02T17:11:38.253Z,100188.89
2019-05-02T17:14:12.114Z,100188.81
2019-05-02T17:16:42.136Z,100184.59
2019-05-02T17:19:12.738Z,100177.86
2019-05-02T17:21:53.960Z,100178.48
2019-05-02T17:24:22.660Z,100172.37
2019-05-02T17:26:54.093Z,100170.45
2019-05-02T17:29:24.135Z,100168.16
2019-05-02T17:31:59.148Z,100166.15
2019-05-02T17:34:30.245Z,100175.25
2019-05-02T17:37:03.231Z,100166.92
2019-05-02T17:39:30.586Z,100175.70
2019-05-02T17:42:00.943Z,100171.23
2019-05-02T17:44:31.258Z,100171.39
2019-05-02T17:47:02.405Z,100178.48
2019-05-02T17:49:37.185Z,100170.24
2019-05-02T17:52:20.985Z,100172.98
2019-05-02T17:54:48.950Z,100174.21
2019-05-02T17:57:21.549Z,100179.53
2019-05-02T17:59:54.518Z,100177.52
2019-05-02T18:02:23.945Z,100179.19
2019-05-02T18:04:55.819Z,100183.20
2019-05-02T18:07:31.671Z,100185.41
2019-05-02T18:09:56.201Z,100176.55
2019-05-02T18:12:25.716Z,100184.61
2019-05-02T18:14:59.062Z,100178.67
2019-05-02T18:17:27.557Z,100176.45
2019-05-02T18:20:02.293Z,100175.44
2019-05-02T18:22:34.214Z,100179.08
2019-05-02T18:25:02.270Z,100177.14
2019-05-02T18:27:32.046Z,100183.00
2019-05-02T18:30:02.227Z,100183.28
2019-05-02T18:32:33.792Z,100199.41
2019-05-02T18:35:06.333Z,100233.77
2019-05-02T18:37:42.839Z,100238.48
2019-05-02T18:40:11.940Z,100239.88
2019-05-02T18:42:42.414Z,100248.81
2019-05-02T18:45:18.077Z,100244.38
2019-05-02T18:47:47.660Z,100238.20
2019-05-02T18:50:36.971Z,100241.17
2019-05-02T18:53:08.547Z,100245.33
2019-05-02T18:55:42.292Z,100243.50
2019-05-02T18:58:13.071Z,100241.88
2019-05-02T19:00:42.694Z,100246.82
2019-05-02T19:03:16.974Z,100248.98
2019-05-02T19:05:46.417Z,100240.35
2019-05-02T19:08:15.145Z,100241.39
2019-05-02T19:11:04.087Z,100238.56
2019-05-02T19:13:19.442Z,100248.98
2019-05-02T19:15:49.121Z,100247.72
2019-05-02T19:18:20.250Z,100247.72
2019-05-02T19:20:57.430Z,100233.54
2019-05-02T19:23:24.491Z,100233.54
2019-05-02T19:25:54.214Z,100238.62
2019-05-02T19:28:34.692Z,100234.40
2019-05-02T19:31:06.738Z,100238.38
2019-05-02T19:33:37.310Z,100249.34
2019-05-02T19:36:05.286Z,100249.34
2019-05-02T19:38:34.971Z,100246.45
2019-05-02T19:41:08.868Z,100236.13
2019-05-02T19:43:40.310Z,100252.98
2019-05-02T19:46:07.034Z,100254.70
2019-05-02T19:48:37.410Z,100267.35
2019-05-02T19:51:10.569Z,100267.35
2019-05-02T19:53:39.116Z,100267.86
2019-05-02T19:56:08.912Z,100276.08
2019-05-02T19:58:42.794Z,100276.08
2019-05-02T20:01:09.788Z,100276.02
2019-05-02T20:03:39.327Z,100271.88
2019-05-02T20:06:08.832Z,100271.88
2019-05-02T20:08:38.358Z,100281.69
2019-05-02T20:11:07.854Z,100288.17
2019-05-02T20:13:37.445Z,100302.88
2019-05-02T20:16:19.953Z,100302.88
2019-05-02T20:18:49.758Z,100307.02
2019-05-02T20:21:27.219Z,100307.02
2019-05-02T20:23:52.107Z,100317.27
2019-05-02T20:26:22.254Z,100320.52
2019-05-02T20:28:52.786Z,100320.52
2019-05-02T20:31:22.590Z,100321.44
2019-05-02T20:33:53.104Z,100324.79
2019-05-02T20:36:25.578Z,100319.45
2019-05-02T20:38:53.837Z,100322.94
2019-05-02T20:41:23.837Z,100317.72
2019-05-02T20:43:53.307Z,100327.72
2019-05-02T20:46:24.799Z,100330.09
2019-05-02T20:48:54.250Z,100328.39
2019-05-02T20:51:24.195Z,100331.81
2019-05-02T20:53:53.650Z,100330.73
2019-05-02T20:56:23.679Z,100334.06
2019-05-02T20:58:54.769Z,100336.77
2019-05-02T21:01:24.289Z,100336.62
2019-05-02T21:03:53.822Z,100341.73
2019-05-02T21:09:22.544Z,100342.45
2019-05-02T21:11:53.699Z,100351.25
2019-05-02T21:14:26.275Z,100354.77
2019-05-02T21:16:55.788Z,100353.64
2019-05-02T21:19:25.354Z,100360.27
2019-05-02T21:21:56.558Z,100356.45
2019-05-02T21:24:26.088Z,100361.23
2019-05-02T21:26:57.142Z,100355.16
2019-05-02T21:29:26.596Z,100359.71
2019-05-02T21:31:56.104Z,100364.43
2019-05-02T21:34:25.732Z,100359.34
2019-05-02T21:36:55.269Z,100358.84
2019-05-02T21:39:24.732Z,100364.45
2019-05-02T21:41:54.252Z,100362.05
2019-05-02T21:44:23.778Z,100361.93
2019-05-02T21:46:53.286Z,100362.52
2019-05-02T21:49:42.961Z,100359.98
2019-05-02T21:52:25.348Z,100362.05
2019-05-02T21:54:56.442Z,100365.34
2019-05-02T21:57:27.422Z,100363.00
2019-05-02T21:59:56.879Z,100365.52
2019-05-02T22:02:26.550Z,100368.44
2019-05-02T22:04:56.128Z,100369.64
2019-05-02T22:07:25.658Z,100369.79
2019-05-02T22:09:55.156Z,100367.14
2019-05-02T22:12:25.052Z,100367.52
2019-05-02T22:14:54.558Z,100375.71
2019-05-02T22:17:24.134Z,100370.55
2019-05-02T22:19:53.638Z,100371.09
2019-05-02T22:22:23.098Z,100375.44
2019-05-02T22:24:52.916Z,100367.14
2019-05-02T22:27:22.661Z,100365.13
2019-05-02T22:29:54.630Z,100372.94
2019-05-02T22:32:23.416Z,100376.89
2019-05-02T22:34:55.841Z,100382.48
2019-05-02T22:37:25.319Z,100377.13
2019-05-02T22:39:56.388Z,100375.93
2019-05-02T22:42:25.916Z,100376.84
2019-05-02T22:44:55.443Z,100372.83
2019-05-02T22:47:25.213Z,100381.52
2019-05-02T22:49:54.675Z,100378.37
2019-05-02T22:52:24.116Z,100386.20
2019-05-02T22:54:53.548Z,100388.95
2019-05-02T22:57:23.007Z,100382.87
2019-05-02T22:59:52.519Z,100385.37
2019-05-02T23:02:22.142Z,100383.03
2019-05-02T23:04:52.664Z,100388.77
2019-05-02T23:07:22.594Z,100384.72
2019-05-02T23:09:52.794Z,100390.52
2019-05-02T23:12:24.899Z,100388.50
2019-05-02T23:14:53.579Z,100392.87
2019-05-02T23:17:23.303Z,100389.41
2019-05-02T23:19:52.941Z,100394.62
2019-05-02T23:22:24.834Z,100398.52
2019-05-02T23:24:55.943Z,100401.84
2019-05-02T23:27:31.442Z,100400.21
2019-05-02T23:30:02.940Z,100404.61
2019-05-02T23:32:34.092Z,100404.31
2019-05-02T23:35:07.594Z,100406.42
2019-05-02T23:37:37.198Z,100406.87
2019-05-02T23:40:06.862Z,100413.42
2019-05-02T23:42:36.808Z,100411.49
2019-05-02T23:45:09.345Z,100407.30
2019-05-02T23:47:38.842Z,100412.94
2019-05-02T23:50:08.434Z,100401.12
2019-05-02T23:52:38.651Z,100405.91
2019-05-02T23:55:08.752Z,100411.12
2019-05-02T23:57:38.252Z,100412.89
